Terminal Aerodrome Forecast
Issued by NWS

Current Version | Previous Version | Text Only | Print | Product List | Glossary On
Versions: 1 2 3 4 5 6 7 8 9 10 11 12 13 14 15 16 17
000
FTUS43 KGRB 172000 AAA
TAFATW
TAF AMD
KATW 172009Z 1720/1818 29010KT P6SM BKN040
     FM180300 31006KT P6SM SCT035 SCT250
     FM181200 34006KT P6SM SCT120 SCT250
     FM181600 34007KT P6SM BKN120 BKN250=

USA.gov is the U.S. government's official web portal to all federal, state and local government web resources and services.